Time;durP1;ratioP1;P1;durP2;ratioP2;P2;SDS_P1;SDS_P2;PMS_P1;PMS_P2;Temp;Humidity;BMP_temperature;BMP_pressure;BME280_temperature;BME280_humidity;BME280_pressure;Samples;Min_cycle;Max_cycle;Signal;HPM_P1;HPM_P2
2021/11/03 00:02:06;;;;;;;39.50;20.17;;;;;;;;;;5092521;28;20102;-65
2021/11/03 00:04:34;;;;;;;38.20;21.00;;;;;;;;;;5074227;28;20016;-66
2021/11/03 00:07:00;;;;;;;37.30;19.30;;;;;;;;;;5092767;28;20024;-66
2021/11/03 00:09:27;;;;;;;36.55;20.65;;;;;;;;;;5074414;28;20047;-66
2021/11/03 00:11:53;;;;;;;42.30;22.83;;;;;;;;;;5092436;28;20035;-68
2021/11/03 00:14:19;;;;;;;42.50;20.25;;;;;;;;;;5092326;28;20035;-66
2021/11/03 00:16:45;;;;;;;42.95;21.38;;;;;;;;;;5092519;28;20376;-65
2021/11/03 00:19:11;;;;;;;43.70;23.08;;;;;;;;;;5092796;28;20028;-65
2021/11/03 00:21:37;;;;;;;40.65;20.95;;;;;;;;;;5092429;28;20024;-65
2021/11/03 00:24:04;;;;;;;42.13;19.45;;;;;;;;;;5074150;28;20012;-66
2021/11/03 00:26:29;;;;;;;38.78;21.40;;;;;;;;;;5092493;28;20035;-65
2021/11/03 00:28:57;;;;;;;44.15;20.80;;;;;;;;;;5073958;28;20016;-66
2021/11/03 00:31:23;;;;;;;36.38;18.40;;;;;;;;;;5075523;28;20027;-66
2021/11/03 00:33:49;;;;;;;36.65;19.48;;;;;;;;;;5093083;28;20028;-65
2021/11/03 00:36:15;;;;;;;34.28;18.70;;;;;;;;;;5092545;28;20024;-65
2021/11/03 00:38:41;;;;;;;38.58;19.30;;;;;;;;;;5092339;28;20012;-65
2021/11/03 00:41:07;;;;;;;34.45;18.55;;;;;;;;;;5074005;28;20107;-65
2021/11/03 00:43:33;;;;;;;36.55;19.02;;;;;;;;;;5091916;28;20073;-65
2021/11/03 00:45:59;;;;;;;34.63;17.48;;;;;;;;;;5074026;28;20098;-65
2021/11/03 00:48:25;;;;;;;37.60;19.33;;;;;;;;;;5073974;28;20024;-66
2021/11/03 00:50:51;;;;;;;35.10;18.75;;;;;;;;;;5092040;28;20025;-65
2021/11/03 00:53:17;;;;;;;34.08;18.08;;;;;;;;;;5092209;28;20029;-65
2021/11/03 00:55:44;;;;;;;32.78;18.27;;;;;;;;;;5074730;28;20021;-65
2021/11/03 00:58:10;;;;;;;39.65;20.20;;;;;;;;;;5092682;28;20043;-65
2021/11/03 01:00:36;;;;;;;35.67;19.52;;;;;;;;;;5074626;28;20028;-65
2021/11/03 01:03:03;;;;;;;41.47;21.58;;;;;;;;;;5074633;28;20024;-65
2021/11/03 01:05:29;;;;;;;37.22;20.67;;;;;;;;;;5092066;28;20118;-65
2021/11/03 01:07:56;;;;;;;44.85;20.02;;;;;;;;;;5074421;28;20069;-66
2021/11/03 01:10:24;;;;;;;42.20;20.48;;;;;;;;;;5092335;28;20571;-65
2021/11/03 01:12:50;;;;;;;41.42;20.15;;;;;;;;;;5074135;28;20028;-65
2021/11/03 01:15:18;;;;;;;42.13;22.60;;;;;;;;;;5092005;28;20056;-65
2021/11/03 01:17:44;;;;;;;39.65;19.33;;;;;;;;;;5074003;28;20403;-65
2021/11/03 01:20:11;;;;;;;39.75;18.63;;;;;;;;;;5073653;28;20487;-65
2021/11/03 01:22:37;;;;;;;42.28;21.88;;;;;;;;;;5073530;28;20034;-66
2021/11/03 01:25:04;;;;;;;40.83;21.58;;;;;;;;;;5073355;28;20027;-65
2021/11/03 01:27:30;;;;;;;39.83;20.90;;;;;;;;;;5073521;28;20085;-65
2021/11/03 01:29:56;;;;;;;44.15;20.65;;;;;;;;;;5073344;28;20028;-65
2021/11/03 01:32:22;;;;;;;39.08;18.73;;;;;;;;;;5094229;28;20020;-65
2021/11/03 01:34:48;;;;;;;43.67;21.60;;;;;;;;;;5095509;28;20112;-65
2021/11/03 01:37:15;;;;;;;46.13;22.95;;;;;;;;;;5077495;28;20030;-66
2021/11/03 01:39:41;;;;;;;43.55;22.17;;;;;;;;;;5077959;28;20502;-66
2021/11/03 01:42:07;;;;;;;48.05;22.00;;;;;;;;;;5095508;28;20048;-65
2021/11/03 01:44:33;;;;;;;39.72;21.02;;;;;;;;;;5077142;28;20078;-65
2021/11/03 01:47:25;;;;;;;38.70;18.83;;;;;;;;;;5095496;28;20050;-66
2021/11/03 01:49:51;;;;;;;42.15;21.52;;;;;;;;;;5063962;28;20040;-66
2021/11/03 01:52:17;;;;;;;43.13;22.48;;;;;;;;;;5095465;28;20549;-66
2021/11/03 01:54:45;;;;;;;38.83;20.73;;;;;;;;;;5094971;28;20138;-67
2021/11/03 01:57:13;;;;;;;39.72;20.70;;;;;;;;;;5076858;28;20017;-66
2021/11/03 01:59:42;;;;;;;42.90;19.52;;;;;;;;;;5095163;28;20433;-66
2021/11/03 02:02:09;;;;;;;45.28;23.17;;;;;;;;;;5095045;28;20036;-65
2021/11/03 02:04:36;;;;;;;40.88;20.33;;;;;;;;;;5094826;28;20132;-66
2021/11/03 02:07:06;;;;;;;40.60;20.02;;;;;;;;;;5094830;28;20460;-66
2021/11/03 02:09:32;;;;;;;45.60;21.67;;;;;;;;;;5095093;28;20570;-66
2021/11/03 02:11:58;;;;;;;45.20;21.02;;;;;;;;;;5076328;28;20399;-66
2021/11/03 02:14:24;;;;;;;42.20;21.15;;;;;;;;;;5076721;28;20020;-66
2021/11/03 02:16:55;;;;;;;48.50;22.52;;;;;;;;;;5077179;28;20444;-66
2021/11/03 02:19:28;;;;;;;46.20;20.58;;;;;;;;;;5094912;28;20016;-66
2021/11/03 02:21:58;;;;;;;44.30;22.13;;;;;;;;;;5077032;28;20479;-67
2021/11/03 02:24:27;;;;;;;44.53;20.83;;;;;;;;;;5094566;28;20020;-64
2021/11/03 02:26:53;;;;;;;;;;;;;;;;;;5095454;28;20051;-66
2021/11/03 02:29:20;;;;;;;43.80;21.23;;;;;;;;;;5094852;28;20358;-67
2021/11/03 02:31:48;;;;;;;45.08;21.15;;;;;;;;;;5076106;28;20072;-67
2021/11/03 02:34:22;;;;;;;42.72;20.52;;;;;;;;;;5075917;28;20092;-64
2021/11/03 02:36:57;;;;;;;37.92;18.45;;;;;;;;;;5076339;28;20458;-64
2021/11/03 02:39:44;;;;;;;41.80;19.27;;;;;;;;;;5076095;28;20024;-65
2021/11/03 02:42:11;;;;;;;42.83;20.60;;;;;;;;;;5093634;28;20046;-65
2021/11/03 02:44:38;;;;;;;42.80;19.92;;;;;;;;;;5093153;28;20492;-65
2021/11/03 02:47:05;;;;;;;42.25;19.67;;;;;;;;;;5093995;28;20024;-64
2021/11/03 02:49:31;;;;;;;36.75;17.38;;;;;;;;;;5075820;28;20062;-64
2021/11/03 02:51:57;;;;;;;42.20;19.63;;;;;;;;;;5094014;28;20031;-64
2021/11/03 02:54:23;;;;;;;41.05;19.65;;;;;;;;;;5075556;28;20024;-65
2021/11/03 02:56:53;;;;;;;42.00;20.38;;;;;;;;;;5093972;28;20028;-64
2021/11/03 02:59:20;;;;;;;39.55;19.92;;;;;;;;;;5093732;28;20027;-65
2021/11/03 03:01:47;;;;;;;45.42;19.98;;;;;;;;;;5094047;28;20035;-64
2021/11/03 03:04:15;;;;;;;41.75;18.85;;;;;;;;;;5075799;28;20130;-65
2021/11/03 03:06:42;;;;;;;46.72;20.35;;;;;;;;;;5075942;28;20032;-64
2021/11/03 03:09:08;;;;;;;43.03;19.60;;;;;;;;;;5075692;28;20020;-64
2021/11/03 03:11:36;;;;;;;44.97;20.27;;;;;;;;;;5093345;28;20040;-64
2021/11/03 03:14:03;;;;;;;45.30;20.17;;;;;;;;;;5093479;28;20036;-65
2021/11/03 03:16:29;;;;;;;46.20;21.27;;;;;;;;;;5093675;28;20105;-64
2021/11/03 03:18:55;;;;;;;42.50;20.10;;;;;;;;;;5093397;28;20031;-64
2021/11/03 03:21:22;;;;;;;46.92;21.77;;;;;;;;;;5093245;28;20040;-64
2021/11/03 03:23:49;;;;;;;46.03;22.45;;;;;;;;;;5093282;28;20090;-64
2021/11/03 03:26:16;;;;;;;48.13;21.40;;;;;;;;;;5075259;28;20024;-64
2021/11/03 03:28:42;;;;;;;55.07;21.73;;;;;;;;;;5075123;28;20135;-65
2021/11/03 03:31:10;;;;;;;51.38;23.77;;;;;;;;;;5093009;28;20077;-65
2021/11/03 03:33:36;;;;;;;45.25;20.33;;;;;;;;;;5074749;28;20012;-65
2021/11/03 03:36:03;;;;;;;45.70;22.30;;;;;;;;;;5093301;28;20024;-65
2021/11/03 03:38:29;;;;;;;44.45;21.15;;;;;;;;;;5092987;28;20081;-65
2021/11/03 03:40:56;;;;;;;42.35;20.88;;;;;;;;;;5074709;28;20024;-65
2021/11/03 03:43:22;;;;;;;77.75;44.22;;;;;;;;;;5092631;28;20299;-65
2021/11/03 03:45:48;;;;;;;47.63;22.55;;;;;;;;;;5092756;28;20073;-64
2021/11/03 03:48:14;;;;;;;54.05;29.17;;;;;;;;;;5092877;28;20020;-64
2021/11/03 03:50:40;;;;;;;85.63;46.40;;;;;;;;;;5093024;28;20123;-65
2021/11/03 03:53:06;;;;;;;47.50;23.33;;;;;;;;;;5092798;28;20497;-63
2021/11/03 03:55:33;;;;;;;46.50;20.50;;;;;;;;;;5074354;28;20028;-65
2021/11/03 03:57:58;;;;;;;47.45;22.48;;;;;;;;;;5074312;28;20534;-66
2021/11/03 04:00:25;;;;;;;43.30;20.48;;;;;;;;;;5092440;28;20024;-64
2021/11/03 04:02:52;;;;;;;42.85;20.60;;;;;;;;;;5092915;28;20115;-64
2021/11/03 04:05:21;;;;;;;40.33;20.92;;;;;;;;;;5092337;28;20023;-65
2021/11/03 04:07:47;;;;;;;40.92;20.38;;;;;;;;;;5074579;28;20020;-65
2021/11/03 04:10:14;;;;;;;48.38;22.67;;;;;;;;;;5092511;28;20059;-64
2021/11/03 04:12:40;;;;;;;42.90;20.30;;;;;;;;;;5093077;28;20023;-66
2021/11/03 04:15:07;;;;;;;48.50;23.30;;;;;;;;;;5074248;28;20024;-64
2021/11/03 04:17:33;;;;;;;45.70;20.10;;;;;;;;;;5092427;28;20028;-65
2021/11/03 04:19:59;;;;;;;48.53;22.15;;;;;;;;;;5092213;28;20027;-65
2021/11/03 04:22:26;;;;;;;42.17;20.80;;;;;;;;;;5074610;28;20392;-66
2021/11/03 04:24:51;;;;;;;48.90;21.83;;;;;;;;;;5091693;28;20020;-66
2021/11/03 04:27:18;;;;;;;44.63;21.30;;;;;;;;;;5074003;28;20022;-64
2021/11/03 04:29:44;;;;;;;48.33;21.33;;;;;;;;;;5091794;28;20234;-64
2021/11/03 04:32:10;;;;;;;49.75;23.17;;;;;;;;;;5073783;28;20494;-65
2021/11/03 04:34:36;;;;;;;47.03;22.33;;;;;;;;;;5073823;28;20024;-65
2021/11/03 04:37:02;;;;;;;46.90;22.00;;;;;;;;;;5092064;28;20526;-65
2021/11/03 04:39:28;;;;;;;50.10;22.95;;;;;;;;;;5074008;28;20035;-64
2021/11/03 04:41:54;;;;;;;51.92;23.85;;;;;;;;;;5074721;28;20062;-64
2021/11/03 04:44:20;;;;;;;46.55;23.50;;;;;;;;;;5073581;28;20020;-64
2021/11/03 04:46:46;;;;;;;49.17;22.00;;;;;;;;;;5073752;28;20065;-65
2021/11/03 04:49:13;;;;;;;49.10;22.52;;;;;;;;;;5092032;28;20016;-64
2021/11/03 04:51:39;;;;;;;44.97;21.67;;;;;;;;;;5091795;28;20107;-65
2021/11/03 04:54:05;;;;;;;47.30;22.95;;;;;;;;;;5092615;28;20050;-65
2021/11/03 04:56:32;;;;;;;42.03;22.00;;;;;;;;;;5073476;28;20099;-65
2021/11/03 04:58:58;;;;;;;48.25;24.00;;;;;;;;;;5073580;28;20020;-65
2021/11/03 05:01:25;;;;;;;47.47;23.58;;;;;;;;;;5073715;28;20046;-65
2021/11/03 05:03:51;;;;;;;46.28;22.30;;;;;;;;;;5073319;28;20031;-65
2021/11/03 05:06:19;;;;;;;49.03;23.13;;;;;;;;;;5092754;28;20503;-64
2021/11/03 05:08:46;;;;;;;46.30;23.52;;;;;;;;;;5077694;28;20097;-64
2021/11/03 05:11:12;;;;;;;45.78;23.33;;;;;;;;;;5077734;28;20028;-63
2021/11/03 05:13:38;;;;;;;50.80;22.70;;;;;;;;;;5100068;22;20440;-67
2021/11/03 05:16:04;;;;;;;50.47;23.42;;;;;;;;;;5077489;28;20028;-67
2021/11/03 05:18:31;;;;;;;46.90;24.67;;;;;;;;;;5095792;28;20512;-67
2021/11/03 05:20:57;;;;;;;51.63;24.00;;;;;;;;;;5077212;28;20069;-64
2021/11/03 05:23:25;;;;;;;47.28;23.25;;;;;;;;;;5069266;28;20032;-67
2021/11/03 05:25:55;;;;;;;53.13;23.75;;;;;;;;;;5089442;28;20013;-67
2021/11/03 05:28:21;;;;;;;48.47;23.58;;;;;;;;;;5057069;28;20078;-68
2021/11/03 05:30:48;;;;;;;45.25;23.90;;;;;;;;;;5067355;28;20020;-65
2021/11/03 05:33:14;;;;;;;47.83;22.80;;;;;;;;;;5094740;28;20036;-66
2021/11/03 05:35:40;;;;;;;45.47;22.80;;;;;;;;;;5077134;28;20077;-66
2021/11/03 05:38:06;;;;;;;45.25;21.38;;;;;;;;;;5076921;28;20479;-67
2021/11/03 05:40:33;;;;;;;46.25;22.58;;;;;;;;;;5095166;28;20024;-67
2021/11/03 05:42:59;;;;;;;44.45;21.38;;;;;;;;;;5094457;28;20051;-68
2021/11/03 05:45:26;;;;;;;45.83;22.08;;;;;;;;;;5094764;28;20020;-66
2021/11/03 05:47:52;;;;;;;44.30;20.48;;;;;;;;;;5076840;28;20024;-67
2021/11/03 05:50:20;;;;;;;48.33;24.48;;;;;;;;;;5076473;28;20020;-67
2021/11/03 05:52:47;;;;;;;47.33;21.30;;;;;;;;;;5094726;28;20074;-66
2021/11/03 05:55:14;;;;;;;50.08;23.60;;;;;;;;;;5094605;28;20047;-67
2021/11/03 05:57:40;;;;;;;43.03;21.63;;;;;;;;;;5056018;28;20059;-67
2021/11/03 06:00:08;;;;;;;128.23;76.32;;;;;;;;;;5056642;28;20035;-67
2021/11/03 06:02:34;;;;;;;109.25;64.47;;;;;;;;;;5056030;28;20078;-66
2021/11/03 06:05:00;;;;;;;71.90;41.90;;;;;;;;;;5074156;28;20025;-67
2021/11/03 06:07:26;;;;;;;58.03;34.63;;;;;;;;;;5056265;28;20025;-67
2021/11/03 06:09:53;;;;;;;47.15;25.27;;;;;;;;;;5056130;28;20427;-66
2021/11/03 06:12:19;;;;;;;58.90;34.30;;;;;;;;;;5073817;28;20048;-66
2021/11/03 06:14:45;;;;;;;58.08;32.92;;;;;;;;;;5073713;28;20039;-66
2021/11/03 06:17:11;;;;;;;58.08;30.70;;;;;;;;;;5055597;28;20411;-67
2021/11/03 06:19:37;;;;;;;49.38;24.25;;;;;;;;;;5073389;28;20465;-68
2021/11/03 06:22:04;;;;;;;39.08;19.92;;;;;;;;;;5073503;28;20025;-68
2021/11/03 06:24:31;;;;;;;40.53;20.13;;;;;;;;;;5092595;28;20472;-65
2021/11/03 06:26:57;;;;;;;41.80;21.77;;;;;;;;;;5093865;28;20016;-66
2021/11/03 06:29:23;;;;;;;42.25;19.98;;;;;;;;;;5075977;28;20016;-67
2021/11/03 06:31:49;;;;;;;38.22;21.27;;;;;;;;;;5076201;28;20025;-66
2021/11/03 06:34:15;;;;;;;40.65;20.77;;;;;;;;;;5075382;28;20074;-64
2021/11/03 06:36:41;;;;;;;37.58;19.92;;;;;;;;;;5075446;28;20032;-63
2021/11/03 06:39:08;;;;;;;42.72;23.42;;;;;;;;;;5093365;28;20028;-67
2021/11/03 06:41:36;;;;;;;38.00;20.98;;;;;;;;;;5093038;28;20036;-65
2021/11/03 06:44:03;;;;;;;43.28;21.05;;;;;;;;;;5074588;28;20020;-65
2021/11/03 06:46:29;;;;;;;37.35;19.27;;;;;;;;;;5075156;28;20104;-66
2021/11/03 06:48:55;;;;;;;41.67;22.48;;;;;;;;;;5093358;28;20039;-67
2021/11/03 06:51:21;;;;;;;37.65;19.67;;;;;;;;;;5075220;28;20016;-67
2021/11/03 06:53:47;;;;;;;39.15;21.10;;;;;;;;;;5074400;28;20115;-68
2021/11/03 06:56:13;;;;;;;41.97;21.95;;;;;;;;;;5092585;28;20016;-66
2021/11/03 06:58:39;;;;;;;39.85;20.70;;;;;;;;;;5093115;28;20082;-67
2021/11/03 07:01:08;;;;;;;40.05;20.05;;;;;;;;;;5092866;28;20544;-66
2021/11/03 07:03:34;;;;;;;41.17;20.42;;;;;;;;;;5092411;28;20581;-65
2021/11/03 07:06:01;;;;;;;38.00;19.75;;;;;;;;;;5092760;28;20032;-67
2021/11/03 07:08:27;;;;;;;38.83;18.70;;;;;;;;;;5092547;28;20016;-65
2021/11/03 07:10:54;;;;;;;35.88;19.70;;;;;;;;;;5092545;28;20047;-63
2021/11/03 07:13:21;;;;;;;37.60;19.08;;;;;;;;;;5091777;28;20035;-66
2021/11/03 07:15:48;;;;;;;38.50;19.10;;;;;;;;;;5092302;28;20020;-66
2021/11/03 07:18:14;;;;;;;37.85;18.88;;;;;;;;;;5073712;28;20028;-66
2021/11/03 07:20:45;;;;;;;38.33;19.25;;;;;;;;;;5073846;28;20118;-64
2021/11/03 07:23:11;;;;;;;35.85;19.05;;;;;;;;;;5073916;28;20047;-66
2021/11/03 07:25:37;;;;;;;37.40;19.60;;;;;;;;;;5091806;28;20020;-65
2021/11/03 07:28:03;;;;;;;35.03;20.27;;;;;;;;;;5092083;28;20085;-66
2021/11/03 07:30:31;;;;;;;34.90;18.42;;;;;;;;;;5091786;28;20028;-66
2021/11/03 07:32:57;;;;;;;38.67;21.02;;;;;;;;;;5091900;28;20099;-65
2021/11/03 07:35:23;;;;;;;34.78;18.80;;;;;;;;;;5073924;28;20027;-66
2021/11/03 07:37:49;;;;;;;35.33;19.73;;;;;;;;;;5092634;28;20028;-67
2021/11/03 07:40:17;;;;;;;38.83;18.45;;;;;;;;;;5091821;28;20093;-66
2021/11/03 07:42:44;;;;;;;35.03;19.08;;;;;;;;;;5073537;28;20119;-65
2021/11/03 07:45:10;;;;;;;39.10;19.63;;;;;;;;;;5092097;28;20051;-67
2021/11/03 07:47:36;;;;;;;34.33;17.65;;;;;;;;;;5092188;28;20047;-67
2021/11/03 07:50:03;;;;;;;39.28;20.60;;;;;;;;;;5092057;28;20020;-67
2021/11/03 07:52:30;;;;;;;34.83;19.02;;;;;;;;;;5091430;28;20021;-66
2021/11/03 07:54:56;;;;;;;36.03;17.95;;;;;;;;;;5091606;28;20031;-65
2021/11/03 07:57:22;;;;;;;36.58;18.38;;;;;;;;;;5073036;28;20028;-66
2021/11/03 07:59:48;;;;;;;32.83;18.50;;;;;;;;;;5091071;28;20059;-69
2021/11/03 08:02:14;;;;;;;35.20;18.38;;;;;;;;;;5090824;28;20048;-67
2021/11/03 08:04:40;;;;;;;35.38;18.50;;;;;;;;;;5091195;28;20031;-69
2021/11/03 08:07:06;;;;;;;32.92;17.63;;;;;;;;;;5073503;28;20120;-68
2021/11/03 08:09:32;;;;;;;30.83;16.95;;;;;;;;;;5091801;28;20056;-68
2021/11/03 08:12:01;;;;;;;32.42;17.42;;;;;;;;;;5091566;28;20353;-68
2021/11/03 08:14:27;;;;;;;;;;;;;;;;;;5092103;28;20035;-68
2021/11/03 08:16:57;;;;;;;35.08;17.67;;;;;;;;;;5091867;28;19904;-68
2021/11/03 08:19:25;;;;;;;40.85;18.80;;;;;;;;;;5091724;28;20073;-68
2021/11/03 08:21:51;;;;;;;32.35;17.13;;;;;;;;;;5091821;28;20028;-68
2021/11/03 08:24:17;;;;;;;31.73;16.58;;;;;;;;;;5091131;28;20026;-68
2021/11/03 08:26:43;;;;;;;34.58;18.75;;;;;;;;;;5091290;28;20020;-68
2021/11/03 08:29:09;;;;;;;33.28;17.63;;;;;;;;;;5091280;28;20095;-68
2021/11/03 08:31:36;;;;;;;34.60;17.08;;;;;;;;;;5091370;28;20028;-68
2021/11/03 08:34:02;;;;;;;32.53;17.48;;;;;;;;;;5091146;28;20448;-68
2021/11/03 08:36:28;;;;;;;31.30;17.15;;;;;;;;;;5072837;28;20095;-68
2021/11/03 08:38:55;;;;;;;33.03;16.88;;;;;;;;;;5091189;28;20432;-72
2021/11/03 08:41:21;;;;;;;30.80;17.08;;;;;;;;;;5090209;28;20024;-67
2021/11/03 08:43:48;;;;;;;30.83;17.13;;;;;;;;;;5090806;28;20313;-70
2021/11/03 08:46:15;;;;;;;34.72;17.77;;;;;;;;;;5072423;28;20085;-70
2021/11/03 08:48:42;;;;;;;30.95;16.15;;;;;;;;;;5072795;28;20031;-67
2021/11/03 08:51:08;;;;;;;31.73;16.00;;;;;;;;;;5090967;28;20039;-68
2021/11/03 08:53:34;;;;;;;31.98;16.38;;;;;;;;;;5090714;28;20188;-67
2021/11/03 08:56:00;;;;;;;29.85;17.05;;;;;;;;;;5091050;28;20024;-66
2021/11/03 08:58:28;;;;;;;30.52;17.20;;;;;;;;;;5079376;28;20036;-68
2021/11/03 09:00:54;;;;;;;32.35;17.27;;;;;;;;;;5071288;28;20168;-69
2021/11/03 09:03:20;;;;;;;33.65;18.38;;;;;;;;;;5052764;28;20028;-69
2021/11/03 09:05:46;;;;;;;32.60;17.65;;;;;;;;;;5052695;28;20055;-68
2021/11/03 09:08:14;;;;;;;31.33;18.15;;;;;;;;;;5070536;28;20100;-68
2021/11/03 09:10:45;;;;;;;33.95;18.38;;;;;;;;;;5052911;28;20025;-68
2021/11/03 09:13:12;;;;;;;32.50;15.93;;;;;;;;;;5051048;28;20444;-68
2021/11/03 09:15:38;;;;;;;33.40;17.25;;;;;;;;;;5069872;28;20065;-69
2021/11/03 09:18:05;;;;;;;34.40;17.67;;;;;;;;;;5070162;28;20108;-68
2021/11/03 09:20:31;;;;;;;30.75;17.45;;;;;;;;;;5069050;28;20390;-68
2021/11/03 09:22:57;;;;;;;32.83;16.23;;;;;;;;;;5071174;28;20036;-68
2021/11/03 09:25:23;;;;;;;29.77;16.23;;;;;;;;;;5090183;28;20124;-68
2021/11/03 09:27:50;;;;;;;33.95;18.67;;;;;;;;;;5090559;28;20103;-68
2021/11/03 09:30:19;;;;;;;34.13;17.13;;;;;;;;;;5090684;28;20034;-68
2021/11/03 09:32:47;;;;;;;38.85;18.27;;;;;;;;;;5090615;28;20038;-67
2021/11/03 09:35:13;;;;;;;31.17;16.27;;;;;;;;;;5090284;28;20049;-65
2021/11/03 09:37:40;;;;;;;31.45;17.58;;;;;;;;;;5090208;28;20055;-67
2021/11/03 09:40:07;;;;;;;30.85;16.92;;;;;;;;;;5090288;28;20103;-66
2021/11/03 09:42:33;;;;;;;32.20;16.33;;;;;;;;;;5090157;28;20031;-68
2021/11/03 09:44:59;;;;;;;30.55;16.58;;;;;;;;;;5090028;28;20047;-67
2021/11/03 09:47:25;;;;;;;29.10;15.77;;;;;;;;;;5090166;28;20020;-67
2021/11/03 09:50:18;;;;;;;32.28;18.52;;;;;;;;;;5071793;28;20372;-66
2021/11/03 09:52:56;;;;;;;28.02;15.55;;;;;;;;;;5087469;28;20036;-66
2021/11/03 09:55:22;;;;;;;31.38;17.02;;;;;;;;;;5094262;28;20028;-67
2021/11/03 09:57:52;;;;;;;30.40;16.42;;;;;;;;;;5094368;28;20079;-67
2021/11/03 10:00:27;;;;;;;29.52;15.80;;;;;;;;;;5094424;28;20031;-67
2021/11/03 10:03:08;;;;;;;27.33;15.18;;;;;;;;;;5094057;28;20438;-66
2021/11/03 10:05:43;;;;;;;33.03;18.00;;;;;;;;;;5093763;28;20026;-66
2021/11/03 10:08:12;;;;;;;30.95;16.95;;;;;;;;;;5075321;28;20027;-66
2021/11/03 10:10:40;;;;;;;30.02;17.30;;;;;;;;;;5093522;28;20103;-67
2021/11/03 10:13:21;;;;;;;29.00;16.13;;;;;;;;;;5074858;28;20469;-65
2021/11/03 10:15:54;;;;;;;27.75;15.77;;;;;;;;;;5093587;28;20076;-66
2021/11/03 10:18:21;;;;;;;30.92;17.88;;;;;;;;;;5093319;28;20545;-67
2021/11/03 10:20:58;;;;;;;31.25;16.70;;;;;;;;;;5075065;28;20303;-65
2021/11/03 10:23:25;;;;;;;32.05;16.83;;;;;;;;;;5075058;28;20020;-67
2021/11/03 10:26:03;;;;;;;32.78;16.85;;;;;;;;;;5093679;28;20108;-67
2021/11/03 10:28:51;;;;;;;29.58;17.33;;;;;;;;;;5093408;28;20023;-67
2021/11/03 10:31:23;;;;;;;29.63;17.70;;;;;;;;;;5094346;28;20104;-66
2021/11/03 10:33:50;;;;;;;26.67;16.08;;;;;;;;;;5093392;28;20044;-66
2021/11/03 10:36:23;;;;;;;26.02;16.40;;;;;;;;;;5093726;28;20024;-67
2021/11/03 10:38:57;;;;;;;26.85;16.48;;;;;;;;;;5093354;28;20054;-66
2021/11/03 10:41:28;;;;;;;28.55;16.70;;;;;;;;;;5093195;28;20024;-66
2021/11/03 10:44:02;;;;;;;26.15;16.00;;;;;;;;;;5093076;28;20112;-64
2021/11/03 10:46:31;;;;;;;28.33;16.52;;;;;;;;;;5093234;28;20498;-67
2021/11/03 10:49:01;;;;;;;26.98;15.30;;;;;;;;;;5075169;28;20028;-67
2021/11/03 10:51:40;;;;;;;27.15;17.23;;;;;;;;;;5093207;28;20016;-66
2021/11/03 10:54:06;;;;;;;;;;;;;;;;;;5088617;28;20115;-67
2021/11/03 10:56:34;;;;;;;28.20;15.80;;;;;;;;;;5073406;28;20284;-67
2021/11/03 10:59:06;;;;;;;29.40;16.10;;;;;;;;;;5055033;28;20017;-65
2021/11/03 11:01:36;;;;;;;33.85;16.70;;;;;;;;;;5072769;28;20021;-67
2021/11/03 11:04:26;;;;;;;28.77;15.07;;;;;;;;;;5071529;28;20070;-67
2021/11/03 11:06:54;;;;;;;28.38;16.42;;;;;;;;;;5059872;28;20083;-67
2021/11/03 11:09:31;;;;;;;30.58;15.65;;;;;;;;;;5072838;28;20017;-67
2021/11/03 11:11:59;;;;;;;26.80;15.82;;;;;;;;;;5072474;28;20055;-66
2021/11/03 11:14:26;;;;;;;27.65;16.63;;;;;;;;;;5073601;28;20120;-65
2021/11/03 11:16:58;;;;;;;28.17;15.65;;;;;;;;;;5072917;28;20477;-67
2021/11/03 11:19:41;;;;;;;28.85;16.92;;;;;;;;;;4797744;28;10001323;-66
2021/11/03 11:22:13;;;;;;;29.45;17.40;;;;;;;;;;5069141;28;20355;-63
2021/11/03 11:24:54;;;;;;;30.52;15.70;;;;;;;;;;5066766;28;20107;-66
2021/11/03 11:27:20;;;;;;;28.42;16.65;;;;;;;;;;5070619;28;20020;-62
2021/11/03 11:30:05;;;;;;;27.90;16.65;;;;;;;;;;5088482;28;20016;-66
2021/11/03 11:32:51;;;;;;;30.60;17.88;;;;;;;;;;5061667;28;20039;-67
2021/11/03 11:35:20;;;;;;;27.00;16.73;;;;;;;;;;5082665;28;20718;-65
2021/11/03 11:37:58;;;;;;;28.13;16.45;;;;;;;;;;5059561;28;20024;-66
2021/11/03 11:40:47;;;;;;;26.65;16.92;;;;;;;;;;5076978;28;20636;-66
2021/11/03 11:43:13;;;;;;;;;;;;;;;;;;5083420;28;20043;-66
2021/11/03 11:45:39;;;;;;;32.63;16.50;;;;;;;;;;5089053;28;19929;-64
2021/11/03 11:48:07;;;;;;;25.67;15.38;;;;;;;;;;5069406;28;20033;-67
2021/11/03 11:50:41;;;;;;;25.40;15.37;;;;;;;;;;5068840;28;20040;-66
2021/11/03 11:53:39;;;;;;;25.42;15.95;;;;;;;;;;5068887;28;20111;-67
2021/11/03 11:56:08;;;;;;;28.30;17.42;;;;;;;;;;5024148;28;20037;-65
2021/11/03 11:58:35;;;;;;;25.92;15.98;;;;;;;;;;5068955;28;20062;-68
2021/11/03 12:01:10;;;;;;;27.42;15.70;;;;;;;;;;5068464;28;20035;-66
2021/11/03 12:03:36;;;;;;;31.77;18.52;;;;;;;;;;5067650;28;20334;-67
2021/11/03 12:06:07;;;;;;;25.20;16.23;;;;;;;;;;5068839;28;20399;-66
2021/11/03 12:08:56;;;;;;;26.80;16.40;;;;;;;;;;5068802;28;20024;-65
2021/11/03 12:11:25;;;;;;;28.50;16.05;;;;;;;;;;5050451;28;20525;-67
2021/11/03 12:13:57;;;;;;;27.02;16.58;;;;;;;;;;5049748;28;20050;-67
2021/11/03 12:16:34;;;;;;;24.30;15.93;;;;;;;;;;5050084;28;20483;-67
2021/11/03 12:19:01;;;;;;;24.88;15.30;;;;;;;;;;5053322;28;20032;-67
2021/11/03 12:21:27;;;;;;;28.00;15.88;;;;;;;;;;5054454;28;20016;-66
2021/11/03 12:23:55;;;;;;;26.35;15.02;;;;;;;;;;5061780;28;20020;-66
2021/11/03 12:26:30;;;;;;;26.20;15.50;;;;;;;;;;5092721;28;20068;-66
2021/11/03 12:28:57;;;;;;;24.52;14.38;;;;;;;;;;5092068;28;20048;-68
2021/11/03 12:31:25;;;;;;;26.60;15.13;;;;;;;;;;5072881;28;20020;-69
2021/11/03 12:34:03;;;;;;;22.65;14.27;;;;;;;;;;5091063;28;20023;-68
2021/11/03 12:36:30;;;;;;;28.67;15.30;;;;;;;;;;5091298;28;20535;-66
2021/11/03 12:38:59;;;;;;;24.17;15.05;;;;;;;;;;5085376;28;20365;-67
2021/11/03 12:41:29;;;;;;;25.25;14.55;;;;;;;;;;5079433;28;20096;-66
2021/11/03 12:43:58;;;;;;;28.25;15.23;;;;;;;;;;5080506;28;20360;-66
2021/11/03 12:46:24;;;;;;;23.65;13.90;;;;;;;;;;5081433;28;20107;-66
2021/11/03 12:48:55;;;;;;;23.63;14.32;;;;;;;;;;5067006;28;20026;-66
2021/11/03 12:51:26;;;;;;;24.52;13.30;;;;;;;;;;5091446;28;20044;-67
2021/11/03 12:53:53;;;;;;;26.27;16.17;;;;;;;;;;5072334;28;20028;-66
2021/11/03 12:56:21;;;;;;;25.60;14.95;;;;;;;;;;5054799;28;20021;-68
2021/11/03 12:58:52;;;;;;;22.38;14.07;;;;;;;;;;5070895;28;20078;-66
2021/11/03 13:01:23;;;;;;;26.08;15.18;;;;;;;;;;5052686;28;20116;-67
2021/11/03 13:03:51;;;;;;;23.58;13.98;;;;;;;;;;5078445;28;20028;-67
2021/11/03 13:06:18;;;;;;;24.40;14.45;;;;;;;;;;5087663;28;20028;-67
2021/11/03 13:08:45;;;;;;;31.85;14.40;;;;;;;;;;5090612;28;20016;-67
2021/11/03 13:11:23;;;;;;;24.45;14.05;;;;;;;;;;5072880;28;20027;-66
2021/11/03 13:13:57;;;;;;;24.38;13.90;;;;;;;;;;5090559;28;20441;-65
2021/11/03 13:16:26;;;;;;;26.75;13.85;;;;;;;;;;5090873;28;20028;-67
2021/11/03 13:18:52;;;;;;;23.42;13.80;;;;;;;;;;5072316;28;20027;-67
2021/11/03 13:21:22;;;;;;;28.35;16.08;;;;;;;;;;4719117;28;10000528;-66
2021/11/03 13:23:49;;;;;;;22.98;13.60;;;;;;;;;;5087280;28;20027;-66
2021/11/03 13:26:23;;;;;;;25.90;15.30;;;;;;;;;;5087391;28;20035;-67
2021/11/03 13:28:50;;;;;;;26.05;15.35;;;;;;;;;;5072551;28;20020;-67
2021/11/03 13:31:16;;;;;;;24.85;14.68;;;;;;;;;;5073331;28;20031;-68
2021/11/03 13:33:56;;;;;;;25.90;14.55;;;;;;;;;;5091246;28;20032;-68
2021/11/03 13:36:28;;;;;;;27.00;15.52;;;;;;;;;;5091407;28;20142;-67
2021/11/03 13:38:59;;;;;;;23.15;13.65;;;;;;;;;;5092200;28;20440;-67
2021/11/03 13:41:37;;;;;;;27.02;15.00;;;;;;;;;;5091375;28;20055;-64
2021/11/03 13:44:12;;;;;;;28.00;15.77;;;;;;;;;;5072725;28;20460;-66
2021/11/03 13:46:38;;;;;;;25.40;14.90;;;;;;;;;;5092161;28;20496;-67
2021/11/03 13:49:11;;;;;;;26.67;14.95;;;;;;;;;;5072585;28;20082;-67
2021/11/03 13:51:47;;;;;;;25.63;13.85;;;;;;;;;;5091105;28;20024;-68
2021/11/03 13:54:39;;;;;;;26.00;14.55;;;;;;;;;;5090994;28;20032;-67
2021/11/03 13:57:25;;;;;;;26.65;15.18;;;;;;;;;;5086675;28;20379;-66
2021/11/03 13:59:56;;;;;;;26.83;15.00;;;;;;;;;;5079943;28;20087;-67
2021/11/03 14:02:33;;;;;;;25.40;14.38;;;;;;;;;;5080189;28;20511;-64
2021/11/03 14:04:59;;;;;;;26.37;14.73;;;;;;;;;;5062379;28;20039;-66
2021/11/03 14:07:27;;;;;;;26.48;14.07;;;;;;;;;;5082006;28;20484;-66
2021/11/03 14:09:55;;;;;;;28.63;16.23;;;;;;;;;;5070098;28;20024;-67
2021/11/03 14:12:22;;;;;;;30.63;15.50;;;;;;;;;;5090494;28;20488;-66
2021/11/03 14:14:49;;;;;;;26.23;14.48;;;;;;;;;;5038661;28;20120;-65
2021/11/03 14:17:20;;;;;;;28.10;14.63;;;;;;;;;;5080159;28;20386;-66
2021/11/03 14:19:55;;;;;;;29.27;14.98;;;;;;;;;;5081138;28;20104;-66
2021/11/03 14:22:26;;;;;;;27.83;14.93;;;;;;;;;;5082687;28;20024;-73
2021/11/03 14:24:52;;;;;;;27.30;14.95;;;;;;;;;;5080832;28;20024;-68
2021/11/03 14:27:18;;;;;;;30.90;16.30;;;;;;;;;;5062218;28;20063;-68